Hovedside
METAR-TAF:

METAR-TAF

Lufthavner :

Maun lufthavn

Maun, Botswana

breddegrad: 19-59S, lengdegrad: 023-25E, høyde over havet: 945 m

Gjeldene værobservasjon

Denne rapporten ble laget for 59 minutter siden, klokken 14:00 UTC
Vind 5 kt fra Øst-nordøst, skiftende mellom Nord og Sørøst
Temperatur 30°C
Luftfuktighet 12%
Trykk 1019 hPa
Sikt 10 km eller mer
ingen skyer under 1500 m og ingen bygeskyer

METAR: FBMN 181400Z 06005KT 360V130 CAVOK 30/M03 Q1019

Tid: 16:59 (14:59 UTC)

Varsel

Denne rapporten ble laget for 4 timer og 59 minutter siden, klokken 10:00 UTC
Varsel gyldig fra 18. klokken 12 UTC til 19. klokken 12 UTC
Vind 5 kt fra Øst-nordøst
Sikt 10 km eller mer
ingen skyer under 1500 m og ingen bygeskyer

TAF: FBMN 181000Z 1812/1912 06005KT CAVOK

Værobservasjoner og værvarsel for over 4000 flyplasser (METAR- og TAF-rapporter).

Tilgjengelige stasjoner er representert av de røde og gule prikkene på kartet.

Hold musepekeren over prikken for å se navnet på stasjonen.

Klikk så for å se værobservasjoner og -varsler.

For å forandre kartet kan du klikke på den grønne knappen med svart kryss for å zoome inn, på den grønne knappen med strek for å zoome ut, eller på de grønne pilene for å se tilstøtende kart.


METAR-TAF: